createdAt,value
2018-10-06T00:00:49.413Z,17.40
2018-10-06T00:03:19.011Z,13.80
2018-10-06T00:05:47.337Z,13.17
2018-10-06T00:08:14.911Z,13.63
2018-10-06T00:10:42.526Z,17.10
2018-10-06T00:13:10.105Z,13.37
2018-10-06T00:15:37.679Z,13.97
2018-10-06T00:18:05.289Z,13.00
2018-10-06T00:20:32.863Z,13.45
2018-10-06T00:23:00.442Z,11.43
2018-10-06T00:25:28.081Z,12.77
2018-10-06T00:27:55.657Z,14.57
2018-10-06T00:30:23.236Z,13.80
2018-10-06T00:32:50.833Z,13.33
2018-10-06T00:35:18.404Z,12.90
2018-10-06T00:37:45.981Z,16.37
2018-10-06T00:40:13.953Z,15.87
2018-10-06T00:42:41.530Z,13.67
2018-10-06T00:45:09.109Z,15.43
2018-10-06T00:47:36.722Z,16.20
2018-10-06T00:50:05.072Z,17.70
2018-10-06T00:52:32.644Z,20.80
2018-10-06T00:55:00.259Z,31.10
2018-10-06T00:57:27.849Z,31.10
2018-10-06T00:59:55.428Z,24.93
2018-10-06T01:02:23.119Z,24.50
2018-10-06T01:04:51.461Z,22.83
2018-10-06T01:07:19.039Z,20.03
2018-10-06T01:09:46.723Z,18.57
2018-10-06T01:12:15.067Z,21.17
2018-10-06T01:14:42.640Z,19.17
2018-10-06T01:17:10.246Z,18.17
2018-10-06T01:19:37.839Z,21.07
2018-10-06T01:22:05.420Z,17.50
2018-10-06T01:24:33.073Z,17.40
2018-10-06T01:27:00.645Z,24.63
2018-10-06T01:29:28.220Z,18.40
2018-10-06T01:31:55.818Z,17.37
2018-10-06T01:34:23.403Z,16.03
2018-10-06T01:36:51.479Z,15.63
2018-10-06T01:39:19.089Z,15.67
2018-10-06T01:41:46.658Z,16.47
2018-10-06T01:44:14.226Z,15.63
2018-10-06T01:46:41.844Z,14.77
2018-10-06T01:49:09.413Z,15.27
2018-10-06T01:51:36.988Z,19.85
2018-10-06T01:56:32.159Z,14.97
2018-10-06T01:58:59.765Z,15.50
2018-10-06T02:01:27.338Z,13.83
2018-10-06T02:03:55.266Z,14.63
2018-10-06T02:06:22.875Z,13.70
2018-10-06T02:08:51.209Z,14.83
2018-10-06T02:11:19.246Z,15.63
2018-10-06T02:13:46.823Z,14.63
2018-10-06T02:16:14.394Z,15.07
2018-10-06T02:18:41.995Z,14.23
2018-10-06T02:21:09.573Z,14.70
2018-10-06T02:23:37.917Z,16.77
2018-10-06T02:26:05.516Z,15.37
2018-10-06T02:28:33.853Z,15.73
2018-10-06T02:31:01.475Z,16.30
2018-10-06T02:33:29.050Z,14.50
2018-10-06T02:35:56.625Z,14.50
2018-10-06T02:38:24.218Z,14.93
2018-10-06T02:40:51.806Z,14.57
2018-10-06T02:43:20.552Z,20.62
2018-10-06T02:45:48.132Z,17.37
2018-10-06T02:48:15.697Z,15.10
2018-10-06T02:50:43.316Z,20.73
2018-10-06T02:53:10.890Z,22.15
2018-10-06T02:55:38.473Z,17.50
2018-10-06T02:58:06.079Z,17.00
2018-10-06T03:00:33.658Z,16.57
2018-10-06T03:03:01.245Z,18.53
2018-10-06T03:05:28.867Z,15.83
2018-10-06T03:07:56.443Z,16.97
2018-10-06T03:10:24.008Z,15.10
2018-10-06T03:12:51.610Z,14.30
2018-10-06T03:15:19.181Z,15.00
2018-10-06T03:17:47.333Z,20.62
2018-10-06T03:20:14.908Z,17.63
2018-10-06T03:22:42.484Z,22.52
2018-10-06T03:25:10.849Z,18.10
2018-10-06T03:27:38.427Z,16.67
2018-10-06T03:30:06.576Z,17.10
2018-10-06T03:32:34.159Z,16.80
2018-10-06T03:35:01.731Z,16.47
2018-10-06T03:37:29.333Z,13.80
2018-10-06T03:39:57.212Z,14.60
2018-10-06T03:42:24.859Z,15.33
2018-10-06T03:44:52.435Z,15.90
2018-10-06T03:47:20.010Z,16.57
2018-10-06T03:49:47.607Z,16.60
2018-10-06T03:52:15.948Z,20.58
2018-10-06T03:54:43.549Z,16.20
2018-10-06T03:57:11.888Z,17.37
2018-10-06T03:59:39.463Z,16.27
2018-10-06T04:02:07.530Z,20.52
2018-10-06T04:04:35.106Z,22.20
2018-10-06T04:07:02.681Z,22.02
2018-10-06T04:09:31.050Z,16.60
2018-10-06T04:11:58.618Z,15.03
2018-10-06T04:14:26.957Z,14.83
2018-10-06T04:16:54.556Z,14.03
2018-10-06T04:19:22.131Z,12.53
2018-10-06T04:21:50.120Z,12.37
2018-10-06T04:24:17.691Z,13.77
2018-10-06T04:26:45.272Z,13.27
2018-10-06T04:29:12.860Z,15.97
2018-10-06T04:31:40.430Z,15.90
2018-10-06T04:34:08.694Z,22.08
2018-10-06T04:36:36.262Z,19.63
2018-10-06T04:39:03.835Z,17.83
2018-10-06T04:41:31.488Z,22.87
2018-10-06T04:43:59.065Z,17.80
2018-10-06T04:46:27.405Z,23.87
2018-10-06T04:48:55.023Z,16.57
2018-10-06T04:51:22.586Z,15.97
2018-10-06T04:53:50.174Z,16.27
2018-10-06T04:56:17.765Z,16.30
2018-10-06T04:58:45.337Z,16.13
2018-10-06T05:01:12.967Z,20.98
2018-10-06T05:03:40.534Z,18.20
2018-10-06T05:06:08.110Z,16.33
2018-10-06T05:08:35.720Z,15.20
2018-10-06T05:11:03.307Z,15.93
2018-10-06T05:13:30.920Z,15.93
2018-10-06T05:15:59.262Z,16.33
2018-10-06T05:18:26.866Z,14.93
2018-10-06T05:20:54.428Z,15.77
2018-10-06T05:23:22.779Z,15.77
2018-10-06T05:25:50.438Z,17.33
2018-10-06T05:28:18.009Z,16.13
2018-10-06T05:30:45.578Z,15.33
2018-10-06T05:33:13.182Z,15.90
2018-10-06T05:35:40.757Z,15.63
2018-10-06T05:38:08.344Z,14.33
2018-10-06T05:40:36.769Z,14.07
2018-10-06T05:43:04.342Z,15.47
2018-10-06T05:45:31.919Z,13.93
2018-10-06T05:47:59.530Z,15.67
2018-10-06T05:50:27.109Z,15.53
2018-10-06T05:52:55.527Z,16.03
2018-10-06T05:55:23.099Z,16.20
2018-10-06T05:57:50.681Z,16.47
2018-10-06T06:00:18.300Z,16.00
2018-10-06T06:02:45.873Z,15.33
2018-10-06T06:05:13.451Z,16.73
2018-10-06T06:07:41.080Z,13.97
2018-10-06T06:10:08.652Z,16.03
2018-10-06T06:12:36.229Z,15.90
2018-10-06T06:15:04.210Z,15.83
2018-10-06T06:17:31.789Z,15.30
2018-10-06T06:19:59.744Z,15.97
2018-10-06T06:22:27.340Z,15.47
2018-10-06T06:24:54.913Z,17.73
2018-10-06T06:27:23.767Z,21.47
2018-10-06T06:29:51.332Z,16.70
2018-10-06T06:32:18.982Z,18.33
2018-10-06T06:34:47.490Z,17.90
2018-10-06T06:37:15.061Z,25.20
2018-10-06T06:39:42.647Z,23.30
2018-10-06T06:42:10.276Z,23.10
2018-10-06T06:44:38.031Z,20.03
2018-10-06T06:47:06.295Z,22.25
2018-10-06T06:49:33.905Z,17.57
2018-10-06T06:52:02.249Z,16.67
2018-10-06T06:54:29.887Z,19.23
2018-10-06T06:56:57.464Z,21.23
2018-10-06T06:59:25.044Z,18.33
2018-10-06T07:01:52.716Z,20.35
2018-10-06T07:04:20.278Z,22.45
2018-10-06T07:06:48.211Z,16.40
2018-10-06T07:09:15.901Z,15.80
2018-10-06T07:11:43.418Z,13.97
2018-10-06T07:14:11.001Z,13.17
2018-10-06T07:16:39.095Z,12.10
2018-10-06T07:19:06.661Z,12.40
2018-10-06T07:21:34.241Z,12.13
2018-10-06T07:24:03.017Z,11.47
2018-10-06T07:26:30.556Z,11.10
2018-10-06T07:28:58.140Z,10.33
2018-10-06T07:31:26.294Z,10.80
2018-10-06T07:33:53.862Z,10.07
2018-10-06T07:36:21.438Z,11.80
2018-10-06T07:38:49.091Z,11.70
2018-10-06T07:41:16.632Z,11.37
2018-10-06T07:43:44.603Z,12.07
2018-10-06T07:46:12.173Z,13.07
2018-10-06T07:48:39.748Z,12.43
2018-10-06T07:51:07.364Z,16.83
2018-10-06T07:53:34.938Z,16.77
2018-10-06T07:56:02.519Z,14.40
2018-10-06T07:58:30.189Z,16.47
2018-10-06T08:00:57.763Z,14.90
2018-10-06T08:03:25.340Z,15.27
2018-10-06T08:05:53.733Z,14.90
2018-10-06T08:08:21.303Z,14.93
2018-10-06T08:10:48.882Z,15.67
2018-10-06T08:13:16.503Z,14.33
2018-10-06T08:15:44.975Z,13.73
2018-10-06T08:18:12.457Z,11.00
2018-10-06T08:20:40.065Z,12.20
2018-10-06T08:23:07.840Z,11.00
2018-10-06T08:25:35.470Z,10.90
2018-10-06T08:28:03.358Z,13.23
2018-10-06T08:30:30.944Z,12.40
2018-10-06T08:32:59.401Z,11.90
2018-10-06T08:35:26.985Z,11.63
2018-10-06T08:37:54.548Z,12.33
2018-10-06T08:40:22.179Z,13.63
2018-10-06T08:42:49.857Z,14.20
2018-10-06T08:45:17.332Z,13.37
2018-10-06T08:47:44.905Z,12.63
2018-10-06T08:50:12.471Z,12.23
2018-10-06T08:52:40.890Z,12.97
2018-10-06T08:55:08.478Z,12.03
2018-10-06T08:57:36.052Z,11.00
2018-10-06T09:00:03.688Z,12.07
2018-10-06T09:02:31.256Z,13.02
2018-10-06T09:04:58.830Z,12.00
2018-10-06T09:07:26.797Z,12.30
2018-10-06T09:09:54.367Z,11.67
2018-10-06T09:12:21.933Z,11.77
2018-10-06T09:14:49.525Z,11.00
2018-10-06T09:17:17.865Z,11.00
2018-10-06T09:19:46.040Z,11.20
2018-10-06T09:22:13.609Z,11.43
2018-10-06T09:24:41.170Z,11.20
2018-10-06T09:27:08.801Z,10.83
2018-10-06T09:29:36.372Z,10.27
2018-10-06T09:32:04.244Z,10.07
2018-10-06T09:34:31.900Z,11.17
2018-10-06T09:36:59.461Z,11.67
2018-10-06T09:39:27.025Z,11.87
2018-10-06T09:41:55.072Z,12.23
2018-10-06T09:44:22.596Z,12.37
2018-10-06T09:46:50.157Z,11.93
2018-10-06T09:49:17.760Z,10.60
2018-10-06T09:51:45.319Z,11.63
2018-10-06T09:54:12.890Z,11.67
2018-10-06T09:56:40.508Z,11.20
2018-10-06T09:59:08.076Z,10.90
2018-10-06T10:01:42.149Z,11.57
2018-10-06T10:04:09.710Z,10.27
2018-10-06T10:06:37.314Z,10.73
2018-10-06T10:09:04.925Z,10.63
2018-10-06T10:11:32.470Z,14.07
2018-10-06T10:14:00.040Z,11.60
2018-10-06T10:16:27.636Z,9.53
2018-10-06T10:18:55.221Z,10.33
2018-10-06T10:21:22.845Z,10.37
2018-10-06T10:23:50.406Z,9.47
2018-10-06T10:26:17.977Z,10.07
2018-10-06T10:28:46.414Z,9.50
2018-10-06T10:31:13.943Z,9.77
2018-10-06T10:33:42.274Z,9.87
2018-10-06T10:36:09.907Z,8.70
2018-10-06T10:38:37.473Z,10.53
2018-10-06T10:41:05.062Z,10.40
2018-10-06T10:43:32.640Z,8.00
2018-10-06T10:46:00.196Z,9.00
2018-10-06T10:48:28.274Z,8.40
2018-10-06T10:50:55.840Z,7.13
2018-10-06T10:53:23.393Z,6.50
2018-10-06T10:55:50.998Z,5.63
2018-10-06T10:58:18.535Z,6.78
2018-10-06T11:00:46.157Z,7.53
2018-10-06T11:03:13.767Z,5.10
2018-10-06T11:05:41.597Z,6.00
2018-10-06T11:08:09.795Z,4.97
2018-10-06T11:10:37.357Z,5.27
2018-10-06T11:13:04.916Z,4.63
2018-10-06T11:15:32.522Z,4.18
2018-10-06T11:18:00.082Z,3.63
2018-10-06T11:20:27.639Z,3.90
2018-10-06T11:22:55.230Z,5.10
2018-10-06T11:25:22.828Z,4.33
2018-10-06T11:27:50.883Z,3.63
2018-10-06T11:30:18.640Z,3.63
2018-10-06T11:32:46.158Z,3.43
2018-10-06T11:35:14.506Z,3.27
2018-10-06T11:37:42.277Z,3.77
2018-10-06T11:40:10.235Z,3.92
2018-10-06T11:42:37.792Z,3.73
2018-10-06T11:45:05.355Z,3.30
2018-10-06T11:47:32.980Z,3.22
2018-10-06T11:50:00.623Z,3.60
2018-10-06T11:52:28.096Z,3.30
2018-10-06T11:54:55.686Z,3.07
2018-10-06T11:57:23.245Z,3.20
2018-10-06T11:59:50.908Z,3.40
2018-10-06T12:02:19.196Z,3.20
2018-10-06T12:04:46.769Z,3.03
2018-10-06T12:07:14.407Z,2.93
2018-10-06T12:09:42.011Z,3.37
2018-10-06T12:12:09.571Z,3.40
2018-10-06T12:14:37.168Z,3.37
2018-10-06T12:17:04.723Z,3.30
2018-10-06T12:19:32.330Z,2.73
2018-10-06T12:21:59.899Z,2.93
2018-10-06T12:24:27.452Z,2.92
2018-10-06T12:26:55.428Z,2.93
2018-10-06T12:29:22.974Z,3.00
2018-10-06T12:31:50.525Z,2.37
2018-10-06T12:34:18.116Z,2.80
2018-10-06T12:36:45.674Z,2.97
2018-10-06T12:39:14.037Z,2.60
2018-10-06T12:41:41.581Z,2.37
2018-10-06T12:44:09.148Z,2.70
2018-10-06T12:46:37.579Z,2.40
2018-10-06T12:49:05.132Z,2.30
2018-10-06T12:51:33.638Z,2.30
2018-10-06T12:54:01.563Z,2.43
2018-10-06T12:56:29.124Z,2.17
2018-10-06T12:58:56.685Z,2.58
2018-10-06T13:01:26.475Z,2.60
2018-10-06T13:03:54.972Z,2.67
2018-10-06T13:06:22.909Z,2.57
2018-10-06T13:08:51.301Z,2.40
2018-10-06T13:11:18.858Z,2.40
2018-10-06T13:13:46.421Z,2.67
2018-10-06T13:16:14.072Z,2.17
2018-10-06T13:18:41.633Z,2.70
2018-10-06T13:21:09.184Z,2.20
2018-10-06T13:23:36.825Z,2.10
2018-10-06T13:26:04.396Z,2.43
2018-10-06T13:28:31.947Z,2.20
2018-10-06T13:30:59.580Z,2.30
2018-10-06T13:33:27.137Z,2.33
2018-10-06T13:35:54.694Z,2.23
2018-10-06T13:38:22.295Z,2.10
2018-10-06T13:40:49.852Z,2.40
2018-10-06T13:43:17.435Z,2.30
2018-10-06T13:45:45.756Z,2.10
2018-10-06T13:48:13.330Z,2.10
2018-10-06T13:50:40.944Z,2.17
2018-10-06T13:53:08.500Z,2.00
2018-10-06T13:55:36.816Z,2.30
2018-10-06T13:58:04.481Z,2.30
2018-10-06T14:00:32.002Z,1.83
2018-10-06T14:02:59.791Z,1.83
2018-10-06T14:05:27.434Z,2.30
2018-10-06T14:07:55.250Z,2.30
2018-10-06T14:10:22.807Z,2.10
2018-10-06T14:12:50.776Z,1.87
2018-10-06T14:15:18.332Z,2.23
2018-10-06T14:17:45.888Z,2.40
2018-10-06T14:20:13.494Z,2.23
2018-10-06T14:22:41.059Z,2.40
2018-10-06T14:25:08.630Z,2.40
2018-10-06T14:27:36.287Z,2.10
2018-10-06T14:30:04.613Z,2.30
2018-10-06T14:32:32.228Z,2.33
2018-10-06T14:34:59.767Z,2.57
2018-10-06T14:37:27.327Z,2.33
2018-10-06T14:39:54.883Z,2.30
2018-10-06T14:42:23.469Z,2.30
2018-10-06T14:44:51.322Z,2.67
2018-10-06T14:47:18.936Z,2.23
2018-10-06T14:49:46.485Z,2.20
2018-10-06T14:52:14.034Z,2.30
2018-10-06T14:54:41.590Z,2.27
2018-10-06T14:57:09.224Z,2.30
2018-10-06T14:59:36.786Z,2.10
2018-10-06T15:02:04.335Z,2.43
2018-10-06T15:04:31.946Z,2.30
2018-10-06T15:06:59.501Z,2.00
2018-10-06T15:09:27.069Z,2.27
2018-10-06T15:11:54.656Z,2.53
2018-10-06T15:14:22.222Z,2.27
2018-10-06T15:16:49.831Z,2.40
2018-10-06T15:19:17.384Z,2.40
2018-10-06T15:21:44.946Z,2.27
2018-10-06T15:24:12.562Z,2.60
2018-10-06T15:26:40.117Z,2.23
2018-10-06T15:29:08.448Z,2.60
2018-10-06T15:31:36.083Z,2.40
2018-10-06T15:34:04.079Z,2.30
2018-10-06T15:36:31.667Z,2.30
2018-10-06T15:38:59.601Z,2.10
2018-10-06T15:41:27.153Z,2.10
2018-10-06T15:43:54.704Z,2.30
2018-10-06T15:46:22.340Z,2.00
2018-10-06T15:48:49.894Z,2.33
2018-10-06T15:51:17.459Z,1.97
2018-10-06T15:53:45.855Z,1.77
2018-10-06T15:56:13.413Z,1.80
2018-10-06T15:58:41.731Z,2.10
2018-10-06T16:01:10.235Z,2.20
2018-10-06T16:03:37.793Z,2.07
2018-10-06T16:06:05.361Z,2.33
2018-10-06T16:08:33.794Z,2.53
2018-10-06T16:11:01.357Z,2.23
2018-10-06T16:13:28.913Z,2.37
2018-10-06T16:15:56.523Z,2.80
2018-10-06T16:18:24.091Z,2.53
2018-10-06T16:20:51.657Z,2.57
2018-10-06T16:23:19.258Z,2.70
2018-10-06T16:25:46.819Z,2.40
2018-10-06T16:28:14.372Z,2.80
2018-10-06T16:30:42.738Z,2.63
2018-10-06T16:33:11.065Z,2.47
2018-10-06T16:35:38.622Z,2.93
2018-10-06T16:38:06.238Z,2.40
2018-10-06T16:40:34.558Z,2.90
2018-10-06T16:43:02.123Z,3.00
2018-10-06T16:45:29.805Z,3.20
2018-10-06T16:47:57.365Z,3.33
2018-10-06T16:50:24.924Z,3.57
2018-10-06T16:52:52.524Z,3.53
2018-10-06T16:55:20.082Z,3.00
2018-10-06T16:57:47.675Z,3.30
2018-10-06T17:00:15.302Z,3.10
2018-10-06T17:02:42.845Z,3.60
2018-10-06T17:05:10.399Z,3.27
2018-10-06T17:07:38.003Z,3.00
2018-10-06T17:10:05.539Z,3.35
2018-10-06T17:12:33.677Z,3.63
2018-10-06T17:15:01.169Z,4.10
2018-10-06T17:17:28.724Z,4.57
2018-10-06T17:19:56.739Z,5.70
2018-10-06T17:22:24.296Z,4.33
2018-10-06T17:24:52.918Z,4.53
2018-10-06T17:27:21.234Z,4.80
2018-10-06T17:29:48.797Z,5.83
2018-10-06T17:32:16.425Z,7.12
2018-10-06T17:34:44.007Z,6.10
2018-10-06T17:37:11.561Z,5.07
2018-10-06T17:39:39.649Z,5.07
2018-10-06T17:42:07.196Z,4.90
2018-10-06T17:44:34.800Z,5.62
2018-10-06T17:47:03.204Z,5.20
2018-10-06T17:49:30.790Z,4.90
2018-10-06T17:51:58.323Z,4.80
2018-10-06T17:54:26.864Z,4.80
2018-10-06T17:56:54.804Z,4.97
2018-10-06T17:59:22.375Z,4.80
2018-10-06T18:01:49.969Z,4.70
2018-10-06T18:04:18.302Z,4.80
2018-10-06T18:06:45.871Z,4.60
2018-10-06T18:09:14.249Z,4.67
2018-10-06T18:11:41.809Z,4.87
2018-10-06T18:14:09.371Z,4.67
2018-10-06T18:16:36.984Z,5.27
2018-10-06T18:19:05.306Z,5.13
2018-10-06T18:21:32.979Z,4.80
2018-10-06T18:24:00.490Z,5.17
2018-10-06T18:26:28.817Z,5.00
2018-10-06T18:28:56.377Z,5.13
2018-10-06T18:31:24.351Z,5.63
2018-10-06T18:33:51.910Z,4.97
2018-10-06T18:36:19.570Z,5.50
2018-10-06T18:38:47.056Z,5.20
2018-10-06T18:41:14.997Z,5.37
2018-10-06T18:43:42.733Z,5.68
2018-10-06T18:46:10.210Z,5.30
2018-10-06T18:48:37.766Z,5.93
2018-10-06T18:51:05.376Z,5.37
2018-10-06T18:53:32.930Z,5.30
2018-10-06T18:56:00.484Z,6.85
2018-10-06T18:58:29.053Z,6.00
2018-10-06T19:00:56.643Z,6.50
2018-10-06T19:03:24.695Z,5.87
2018-10-06T19:05:52.190Z,5.80
2018-10-06T19:08:20.507Z,4.83
2018-10-06T19:10:48.068Z,5.60
2018-10-06T19:13:15.682Z,5.47
2018-10-06T19:15:43.244Z,6.00
2018-10-06T19:18:10.807Z,4.83
2018-10-06T19:20:38.429Z,5.30
2018-10-06T19:23:05.996Z,6.30
2018-10-06T19:25:34.335Z,5.97
2018-10-06T19:28:01.996Z,6.10
2018-10-06T19:30:29.524Z,6.20
2018-10-06T19:32:57.075Z,6.40
2018-10-06T19:35:25.239Z,7.67
2018-10-06T19:37:52.803Z,7.53
2018-10-06T19:40:20.611Z,6.73
2018-10-06T19:42:49.026Z,8.43
2018-10-06T19:45:16.596Z,7.00
2018-10-06T19:47:44.156Z,6.87
2018-10-06T19:50:11.794Z,7.03
2018-10-06T19:52:39.366Z,8.20
2018-10-06T19:55:06.924Z,8.87
2018-10-06T19:57:34.537Z,7.90
2018-10-06T20:00:02.119Z,8.47
2018-10-06T20:02:29.673Z,8.20
2018-10-06T20:04:58.989Z,8.93
2018-10-06T20:07:27.321Z,20.37
2018-10-06T20:09:54.886Z,17.90
2018-10-06T20:12:22.568Z,29.07
2018-10-06T20:14:50.099Z,7.47
2018-10-06T20:17:17.646Z,5.90
2018-10-06T20:19:46.553Z,5.23
2018-10-06T20:22:14.106Z,6.13
2018-10-06T20:24:41.670Z,11.97
2018-10-06T20:27:09.287Z,11.30
2018-10-06T20:29:37.620Z,11.83
2018-10-06T20:32:05.185Z,11.30
2018-10-06T20:34:32.782Z,18.43
2018-10-06T20:37:00.343Z,17.57
2018-10-06T20:39:28.423Z,16.80
2018-10-06T20:41:56.758Z,17.67
2018-10-06T20:44:24.322Z,14.23
2018-10-06T20:46:52.439Z,11.90
2018-10-06T20:49:19.993Z,12.00
2018-10-06T20:51:48.321Z,11.20
2018-10-06T20:54:17.739Z,10.70
2018-10-06T20:56:45.304Z,10.07
2018-10-06T20:59:12.878Z,12.20
2018-10-06T21:01:40.728Z,11.20
2018-10-06T21:04:08.294Z,11.87
2018-10-06T21:06:35.862Z,11.98
2018-10-06T21:09:03.475Z,9.87
2018-10-06T21:11:31.378Z,9.70
2018-10-06T21:13:58.948Z,11.40
2018-10-06T21:16:26.591Z,9.70
2018-10-06T21:18:54.157Z,7.30
2018-10-06T21:21:21.722Z,7.30
2018-10-06T21:23:49.333Z,7.37
2018-10-06T21:26:16.893Z,8.90
2018-10-06T21:28:45.667Z,7.60
2018-10-06T21:31:14.086Z,7.70
2018-10-06T21:33:42.399Z,7.80
2018-10-06T21:36:09.959Z,8.90
2018-10-06T21:38:37.560Z,9.23
2018-10-06T21:41:05.106Z,8.50
2018-10-06T21:43:32.766Z,9.93
2018-10-06T21:46:00.340Z,9.07
2018-10-06T21:48:27.890Z,9.30
2018-10-06T21:50:55.556Z,9.43
2018-10-06T21:53:23.070Z,9.38
2018-10-06T21:55:50.628Z,8.00
2018-10-06T21:58:18.239Z,7.40
2018-10-06T22:00:45.794Z,7.67
2018-10-06T22:03:13.382Z,8.40
2018-10-06T22:05:41.449Z,7.63
2018-10-06T22:08:09.769Z,7.33
2018-10-06T22:10:37.330Z,7.80
2018-10-06T22:13:04.933Z,7.43
2018-10-06T22:15:32.495Z,7.90
2018-10-06T22:18:00.076Z,8.95
2018-10-06T22:20:28.464Z,9.27
2018-10-06T22:22:56.794Z,7.93
2018-10-06T22:25:24.352Z,7.77
2018-10-06T22:27:51.986Z,7.77
2018-10-06T22:30:19.537Z,7.73
2018-10-06T22:32:47.101Z,8.53
2018-10-06T22:35:14.701Z,8.10
2018-10-06T22:37:42.264Z,8.60
2018-10-06T22:40:09.880Z,9.00
2018-10-06T22:42:37.438Z,9.00
2018-10-06T22:45:05.759Z,8.53
2018-10-06T22:47:33.415Z,8.50
2018-10-06T22:50:00.967Z,7.53
2018-10-06T22:52:28.527Z,8.13
2018-10-06T22:54:56.134Z,8.13
2018-10-06T22:57:23.690Z,8.30
2018-10-06T22:59:51.246Z,8.70
2018-10-06T23:02:18.910Z,10.57
2018-10-06T23:04:46.469Z,10.50
2018-10-06T23:07:14.027Z,10.17
2018-10-06T23:09:42.087Z,10.93
2018-10-06T23:12:09.659Z,9.13
2018-10-06T23:14:37.619Z,8.57
2018-10-06T23:17:05.229Z,10.88
2018-10-06T23:19:33.971Z,8.80
2018-10-06T23:22:01.531Z,8.47
2018-10-06T23:24:29.169Z,8.40
2018-10-06T23:26:56.723Z,7.73
2018-10-06T23:29:24.288Z,8.90
2018-10-06T23:31:51.880Z,7.67
2018-10-06T23:34:19.448Z,7.90
2018-10-06T23:36:47.017Z,7.53
2018-10-06T23:39:14.601Z,8.10
2018-10-06T23:41:42.167Z,9.43
2018-10-06T23:44:10.198Z,9.87
2018-10-06T23:46:37.768Z,10.10
2018-10-06T23:49:05.328Z,10.03
2018-10-06T23:51:32.915Z,7.90
2018-10-06T23:54:00.489Z,7.63
2018-10-06T23:56:28.131Z,7.53
2018-10-06T23:58:55.688Z,7.60
